Stockholm Arlanda, Sweden

2:03 AM CEST on July 08, 2015 (GMT +0200)
Kattsta | | Change Station
CLOSE
Current Station
Personal Weather Station
Location: Kattsta, Stockholm
Elevation: 64 ft
Nearby Weather Stations

Elev 64 ft 59.65 °N, 17.90 °E | Updated 3 minutes ago

Clear
Clear
56.5 °F
Feels Like 56.5 °F
N
2.2
Wind Variable Wind from North
Gusts 3.8 mph

Today
High -- | Low -- °F
--% Chance of Precip.
Yesterday
High -- | Low -- °F
Precip. -- in
3:42 AM 10:02 PM
Waning Gibbous, 60% visible
Pressure 29.53 in
Visibility -9999.0 miles
Clouds
Dew Point 53 °F
Humidity 85%
Rainfall 0.00 in
Snow Depth Not available.
UV Not available.
Pollen Not available.
Air Quality Not available.
Flu Activity Not available.
METAR ESSA 072350Z 24006KT CAVOK 14/10 Q1000 NOSIG

More Conditions Fewer Conditions

Pressure 29.53 in
Visibility -9999.0 miles
Clouds
Dew Point 53 °F
Humidity 85%
Rainfall 0.00 in
Snow Depth Not available.
UV Not available.
Pollen Not available.
Air Quality Not available.
Flu Activity Not available.
METAR ESSA 072350Z 24006KT CAVOK 14/10 Q1000 NOSIG

More Conditions Fewer Conditions

10-Day Weather Forecast

×

Almanac

Astronomy

Jul. 08, 2015 Rise Set
Actual Time
Civil Twilight
Nautical Twilight
Astronomical Twilight
Moon
Length of Visible Light
Length of Day
Tomorrow will be .
, % of the Moon is Illuminated

Today's Extremes

Country Highs Country Lows

Community

WunderPhotos

Upload Photos

1,835,961 photos uploaded!

WunderBlogs® & News

Nearby

Air Quality

  Air Quality AQ Index Pollutant
Not available.

Snow Depth

Station Depth Elevation

Earthquake Activity

City Distance Mag. Time & Date
Minimum magnitude displayed is 2.5.

Coastal Water Temperatures

Place Temperature

Stations

Nearby Weather Stations

Station Location Temp. Windchill Dew Point Humidity Wind Precip. Elev Updated Type